createdAt,value
2023-03-25T00:00:15.475Z,12.97
2023-03-25T00:03:04.522Z,12.93
2023-03-25T00:05:33.779Z,12.91
2023-03-25T00:08:01.248Z,12.88
2023-03-25T00:10:28.249Z,12.87
2023-03-25T00:13:04.798Z,12.81
2023-03-25T00:15:33.961Z,12.82
2023-03-25T00:18:02.096Z,12.79
2023-03-25T00:20:34.302Z,12.74
2023-03-25T00:23:01.414Z,12.73
2023-03-25T00:25:28.318Z,12.72
2023-03-25T00:27:55.536Z,12.74
2023-03-25T00:30:22.438Z,12.72
2023-03-25T00:32:50.327Z,12.69
2023-03-25T00:35:19.712Z,12.75
2023-03-25T00:37:52.297Z,12.78
2023-03-25T00:40:19.544Z,12.76
2023-03-25T00:42:50.521Z,12.80
2023-03-25T00:45:17.553Z,12.76
2023-03-25T00:47:45.189Z,12.74
2023-03-25T00:50:12.231Z,12.73
2023-03-25T00:52:39.460Z,12.76
2023-03-25T00:55:06.455Z,12.74
2023-03-25T00:57:33.618Z,12.69
2023-03-25T01:00:00.566Z,12.65
2023-03-25T01:02:28.305Z,12.63
2023-03-25T01:04:57.709Z,12.64
2023-03-25T01:07:29.297Z,12.65
2023-03-25T01:09:57.159Z,12.63
2023-03-25T01:12:25.906Z,12.57
2023-03-25T01:14:55.745Z,12.56
2023-03-25T01:17:23.269Z,12.54
2023-03-25T01:19:50.661Z,12.53
2023-03-25T01:22:18.035Z,12.47
2023-03-25T01:24:44.932Z,12.45
2023-03-25T01:27:16.790Z,12.42
2023-03-25T01:29:46.248Z,12.42
2023-03-25T01:32:13.432Z,12.40
2023-03-25T01:34:42.906Z,12.36
2023-03-25T01:37:10.301Z,12.33
2023-03-25T01:39:38.287Z,12.29
2023-03-25T01:42:06.025Z,12.33
2023-03-25T01:44:33.611Z,12.32
2023-03-25T01:47:03.688Z,12.36
2023-03-25T01:49:39.275Z,12.33
2023-03-25T01:52:11.500Z,12.33
2023-03-25T01:54:39.104Z,12.35
2023-03-25T01:57:07.997Z,12.31
2023-03-25T01:59:35.081Z,12.30
2023-03-25T02:02:04.051Z,12.25
2023-03-25T02:04:39.346Z,12.26
2023-03-25T02:07:10.323Z,12.26
2023-03-25T02:09:38.133Z,12.26
2023-03-25T02:12:07.608Z,12.25
2023-03-25T02:14:36.115Z,12.33
2023-03-25T02:17:12.179Z,12.29
2023-03-25T02:20:13.832Z,12.31
2023-03-25T02:22:47.674Z,12.29
2023-03-25T02:25:16.140Z,12.26
2023-03-25T02:27:52.925Z,12.27
2023-03-25T02:30:23.006Z,12.25
2023-03-25T02:33:07.307Z,12.24
2023-03-25T02:35:37.790Z,12.28
2023-03-25T02:38:06.552Z,12.26
2023-03-25T02:40:42.062Z,12.29
2023-03-25T02:43:21.267Z,12.29
2023-03-25T02:45:52.621Z,12.24
2023-03-25T02:48:33.273Z,12.18
2023-03-25T02:51:04.360Z,12.10
2023-03-25T02:53:33.911Z,12.12
2023-03-25T02:56:03.562Z,12.06
2023-03-25T02:58:31.828Z,12.02
2023-03-25T03:00:59.142Z,12.01
2023-03-25T03:03:27.382Z,12.04
2023-03-25T03:05:59.094Z,12.05
2023-03-25T03:08:26.523Z,12.03
2023-03-25T03:10:58.625Z,12.01
2023-03-25T03:13:37.324Z,11.99
2023-03-25T03:16:14.199Z,11.92
2023-03-25T03:18:42.410Z,11.91
2023-03-25T03:21:16.652Z,11.87
2023-03-25T03:23:51.490Z,11.84
2023-03-25T03:26:28.748Z,11.81
2023-03-25T03:29:08.442Z,11.77
2023-03-25T03:31:50.872Z,11.81
2023-03-25T03:34:27.613Z,11.82
2023-03-25T03:36:55.876Z,11.71
2023-03-25T03:39:28.675Z,11.62
2023-03-25T03:42:01.852Z,11.65
2023-03-25T03:44:32.110Z,11.59
2023-03-25T03:47:12.039Z,11.66
2023-03-25T03:49:43.059Z,11.67
2023-03-25T03:52:17.153Z,11.63
2023-03-25T03:54:49.564Z,11.60
2023-03-25T03:57:22.937Z,11.63
2023-03-25T03:59:50.046Z,11.55
2023-03-25T04:02:27.321Z,11.54
2023-03-25T04:04:54.842Z,11.53
2023-03-25T04:07:39.198Z,11.54
2023-03-25T04:10:14.907Z,11.51
2023-03-25T04:12:44.571Z,11.52
2023-03-25T04:15:12.135Z,11.50
2023-03-25T04:17:39.430Z,11.48
2023-03-25T04:20:11.648Z,11.47
2023-03-25T04:22:38.616Z,11.47
2023-03-25T04:25:06.416Z,11.43
2023-03-25T04:27:33.324Z,11.38
2023-03-25T04:30:01.915Z,11.34
2023-03-25T04:32:29.006Z,11.32
2023-03-25T04:34:57.858Z,11.29
2023-03-25T04:37:27.884Z,11.26
2023-03-25T04:39:56.185Z,11.24
2023-03-25T04:42:25.830Z,11.29
2023-03-25T04:44:53.005Z,11.31
2023-03-25T04:47:23.399Z,11.23
2023-03-25T04:49:51.120Z,11.22
2023-03-25T04:52:17.999Z,11.20
2023-03-25T04:54:45.156Z,11.15
2023-03-25T04:57:12.092Z,11.16
2023-03-25T04:59:39.275Z,11.16
2023-03-25T05:02:06.864Z,11.18
2023-03-25T05:04:36.135Z,11.20
2023-03-25T05:07:03.981Z,11.18
2023-03-25T05:09:31.740Z,11.13
2023-03-25T05:11:58.742Z,11.10
2023-03-25T05:14:26.070Z,11.08
2023-03-25T05:16:53.000Z,11.08
2023-03-25T05:19:22.608Z,11.07
2023-03-25T05:21:49.451Z,11.01
2023-03-25T05:24:16.863Z,11.03
2023-03-25T05:26:43.753Z,10.98
2023-03-25T05:29:15.097Z,11.03
2023-03-25T05:31:42.841Z,11.05
2023-03-25T05:34:10.075Z,11.08
2023-03-25T05:36:37.139Z,11.13
2023-03-25T05:39:05.608Z,11.16
2023-03-25T05:41:33.052Z,11.16
2023-03-25T05:44:03.727Z,11.21
2023-03-25T05:46:30.798Z,11.30
2023-03-25T05:48:58.005Z,11.31
2023-03-25T05:51:25.707Z,11.37
2023-03-25T05:53:53.342Z,11.48
2023-03-25T05:56:21.321Z,11.56
2023-03-25T05:58:49.770Z,11.54
2023-03-25T06:01:32.005Z,11.61
2023-03-25T06:04:02.407Z,11.64
2023-03-25T06:06:32.113Z,11.70
2023-03-25T06:08:59.892Z,11.79
2023-03-25T06:11:26.820Z,11.83
2023-03-25T06:13:54.025Z,11.86
2023-03-25T06:16:22.122Z,11.85
2023-03-25T06:18:56.619Z,11.80
2023-03-25T06:21:24.214Z,11.77
2023-03-25T06:23:51.448Z,11.78
2023-03-25T06:26:18.904Z,11.79
2023-03-25T06:28:46.184Z,11.80
2023-03-25T06:31:17.804Z,11.87
2023-03-25T06:33:45.527Z,11.93
2023-03-25T06:36:13.184Z,11.91
2023-03-25T06:38:40.450Z,11.94
2023-03-25T06:41:15.594Z,11.96
2023-03-25T06:43:43.459Z,11.98
2023-03-25T06:46:29.134Z,12.02
2023-03-25T06:49:24.007Z,11.96
2023-03-25T06:51:53.337Z,12.01
2023-03-25T06:54:20.700Z,12.04
2023-03-25T06:56:47.610Z,12.09
2023-03-25T06:59:14.897Z,12.12
2023-03-25T07:01:43.054Z,12.21
2023-03-25T07:04:10.806Z,12.21
2023-03-25T07:06:37.774Z,12.21
2023-03-25T07:09:04.955Z,12.22
2023-03-25T07:11:32.676Z,12.19
2023-03-25T07:13:59.971Z,12.18
2023-03-25T07:16:27.607Z,12.17
2023-03-25T07:18:56.793Z,12.20
2023-03-25T07:21:23.926Z,12.19
2023-03-25T07:23:51.464Z,12.22
2023-03-25T07:26:18.645Z,12.25
2023-03-25T07:28:48.006Z,12.29
2023-03-25T07:31:16.471Z,12.36
2023-03-25T07:33:43.691Z,12.41
2023-03-25T07:36:11.500Z,12.47
2023-03-25T07:38:38.716Z,12.43
2023-03-25T07:41:09.574Z,12.49
2023-03-25T07:43:36.850Z,12.50
2023-03-25T07:46:19.887Z,12.54
2023-03-25T07:48:47.246Z,12.60
2023-03-25T07:51:14.143Z,12.71
2023-03-25T07:53:45.312Z,12.99
2023-03-25T07:56:15.017Z,13.31
2023-03-25T07:58:42.314Z,13.40
2023-03-25T08:01:11.872Z,13.51
2023-03-25T08:03:40.112Z,13.61
2023-03-25T08:06:07.715Z,13.47
2023-03-25T08:08:34.984Z,13.45
2023-03-25T08:11:04.329Z,13.39
2023-03-25T08:13:31.895Z,13.30
2023-03-25T08:16:01.243Z,13.11
2023-03-25T08:18:31.525Z,13.06
2023-03-25T08:20:58.382Z,12.96
2023-03-25T08:23:26.733Z,12.95
2023-03-25T08:25:54.741Z,12.88
2023-03-25T08:28:24.978Z,12.97
2023-03-25T08:30:55.351Z,12.94
2023-03-25T08:33:27.490Z,12.97
2023-03-25T08:35:57.329Z,13.06
2023-03-25T08:38:25.500Z,13.07
2023-03-25T08:40:52.648Z,13.05
2023-03-25T08:43:19.939Z,13.07
2023-03-25T08:45:46.869Z,13.18
2023-03-25T08:48:14.072Z,13.17
2023-03-25T08:50:40.957Z,13.27
2023-03-25T08:53:08.221Z,13.25
2023-03-25T08:55:35.203Z,13.27
2023-03-25T08:58:02.706Z,13.39
2023-03-25T09:00:29.747Z,13.41
2023-03-25T09:02:59.109Z,13.35
2023-03-25T09:05:27.005Z,13.41
2023-03-25T09:07:56.348Z,13.35
2023-03-25T09:10:23.299Z,13.40
2023-03-25T09:12:51.429Z,13.34
2023-03-25T09:15:18.605Z,13.46
2023-03-25T09:17:48.321Z,13.49
2023-03-25T09:20:15.726Z,13.69
2023-03-25T09:22:42.992Z,13.60
2023-03-25T09:25:10.821Z,13.75
2023-03-25T09:27:38.026Z,13.89
2023-03-25T09:30:06.276Z,13.89
2023-03-25T09:32:33.807Z,13.82
2023-03-25T09:35:00.915Z,13.61
2023-03-25T09:37:28.376Z,13.60
2023-03-25T09:39:55.273Z,13.58
2023-03-25T09:42:28.552Z,13.67
2023-03-25T09:45:13.840Z,13.86
2023-03-25T09:47:59.401Z,13.91
2023-03-25T09:50:28.889Z,13.93
2023-03-25T09:52:59.165Z,14.01
2023-03-25T09:55:28.578Z,14.03
2023-03-25T09:58:22.269Z,13.93
2023-03-25T10:00:56.914Z,13.83
2023-03-25T10:03:28.650Z,13.87
2023-03-25T10:05:55.507Z,13.93
2023-03-25T10:08:22.656Z,13.88
2023-03-25T10:11:12.231Z,13.95
2023-03-25T10:14:00.481Z,13.95
2023-03-25T10:16:27.571Z,13.87
2023-03-25T10:18:57.085Z,13.77
2023-03-25T10:21:38.581Z,13.95
2023-03-25T10:24:24.532Z,13.95
2023-03-25T10:26:54.634Z,14.22
2023-03-25T10:29:26.468Z,14.30
2023-03-25T10:31:59.807Z,14.25
2023-03-25T10:34:36.185Z,14.15
2023-03-25T10:37:07.855Z,14.11
2023-03-25T10:39:38.227Z,14.25
2023-03-25T10:42:15.874Z,14.32
2023-03-25T10:44:44.555Z,14.32
2023-03-25T10:47:22.358Z,14.27
2023-03-25T10:49:49.948Z,14.22
2023-03-25T10:52:19.693Z,14.35
2023-03-25T10:54:50.893Z,14.36
2023-03-25T10:57:28.148Z,14.42
2023-03-25T10:59:55.732Z,14.48
2023-03-25T11:02:25.669Z,14.50
2023-03-25T11:04:56.158Z,14.38
2023-03-25T11:07:30.287Z,14.44
2023-03-25T11:10:16.074Z,14.47
2023-03-25T11:12:46.644Z,14.42
2023-03-25T11:15:34.331Z,14.34
2023-03-25T11:18:19.737Z,14.36
2023-03-25T11:20:54.510Z,14.35
2023-03-25T11:23:29.758Z,14.37
2023-03-25T11:26:01.890Z,14.46
2023-03-25T11:28:31.775Z,14.43
2023-03-25T11:31:09.163Z,14.46
2023-03-25T11:33:42.171Z,14.43
2023-03-25T11:36:30.020Z,14.63
2023-03-25T11:38:58.691Z,14.96
2023-03-25T11:41:32.993Z,15.17
2023-03-25T11:44:00.582Z,15.37
2023-03-25T11:46:27.918Z,15.18
2023-03-25T11:48:55.357Z,14.99
2023-03-25T11:51:28.548Z,14.79
2023-03-25T11:54:05.155Z,14.50
2023-03-25T11:56:42.858Z,14.35
2023-03-25T11:59:17.941Z,14.36
2023-03-25T12:01:49.923Z,14.63
2023-03-25T12:04:21.407Z,14.81
2023-03-25T12:06:58.104Z,14.73
2023-03-25T12:09:30.467Z,14.66
2023-03-25T12:12:16.785Z,14.71
2023-03-25T12:14:46.659Z,14.59
2023-03-25T12:17:37.253Z,14.38
2023-03-25T12:20:12.592Z,14.11
2023-03-25T12:22:58.675Z,13.98
2023-03-25T12:25:32.270Z,13.94
2023-03-25T12:28:14.984Z,14.20
2023-03-25T12:30:49.102Z,14.68
2023-03-25T12:33:35.104Z,14.83
2023-03-25T12:36:07.852Z,15.04
2023-03-25T12:38:45.760Z,15.24
2023-03-25T12:41:15.756Z,15.48
2023-03-25T12:43:54.325Z,15.61
2023-03-25T12:46:27.397Z,15.56
2023-03-25T12:49:21.074Z,15.52
2023-03-25T12:51:54.122Z,15.52
2023-03-25T12:54:50.858Z,15.33
2023-03-25T12:57:36.075Z,15.60
2023-03-25T13:00:23.218Z,15.81
2023-03-25T13:02:50.144Z,15.94
2023-03-25T13:05:17.445Z,16.23
2023-03-25T13:07:47.528Z,16.37
2023-03-25T13:10:14.792Z,16.26
2023-03-25T13:12:46.175Z,16.01
2023-03-25T13:15:26.803Z,15.84
2023-03-25T13:18:07.470Z,15.77
2023-03-25T13:20:37.937Z,15.50
2023-03-25T13:23:06.624Z,15.53
2023-03-25T13:25:45.627Z,15.63
2023-03-25T13:28:16.194Z,15.67
2023-03-25T13:30:46.065Z,15.73
2023-03-25T13:33:13.997Z,15.84
2023-03-25T13:36:04.802Z,15.78
2023-03-25T13:38:34.245Z,16.04
2023-03-25T13:41:06.970Z,16.08
2023-03-25T13:43:49.711Z,15.84
2023-03-25T13:46:19.916Z,15.57
2023-03-25T13:49:05.581Z,15.50
2023-03-25T13:51:33.147Z,15.49
2023-03-25T13:54:05.220Z,15.33
2023-03-25T13:56:46.235Z,15.27
2023-03-25T13:59:13.156Z,15.19
2023-03-25T14:01:43.403Z,15.24
2023-03-25T14:04:22.640Z,15.11
2023-03-25T14:06:56.350Z,14.94
2023-03-25T14:09:49.645Z,14.92
2023-03-25T14:12:19.019Z,14.74
2023-03-25T14:14:50.218Z,14.58
2023-03-25T14:17:18.785Z,14.48
2023-03-25T14:19:50.151Z,14.36
2023-03-25T14:22:18.788Z,14.30
2023-03-25T14:24:46.411Z,14.25
2023-03-25T14:27:18.047Z,14.25
2023-03-25T14:29:55.594Z,14.16
2023-03-25T14:32:22.832Z,14.21
2023-03-25T14:34:53.045Z,14.18
2023-03-25T14:37:27.161Z,13.92
2023-03-25T14:40:00.890Z,13.89
2023-03-25T14:42:43.562Z,13.79
2023-03-25T14:45:29.975Z,13.69
2023-03-25T14:47:59.544Z,13.60
2023-03-25T14:50:27.814Z,13.58
2023-03-25T14:52:58.393Z,13.58
2023-03-25T14:55:32.444Z,13.64
2023-03-25T14:58:13.948Z,13.51
2023-03-25T15:00:42.593Z,13.38
2023-03-25T15:03:14.353Z,13.23
2023-03-25T15:05:42.559Z,13.18
2023-03-25T15:08:14.484Z,13.16
2023-03-25T15:10:48.564Z,13.20
2023-03-25T15:13:21.790Z,13.29
2023-03-25T15:15:50.464Z,13.38
2023-03-25T15:18:36.879Z,13.47
2023-03-25T15:21:10.481Z,13.62
2023-03-25T15:23:47.602Z,13.75
2023-03-25T15:26:20.484Z,13.84
2023-03-25T15:28:50.793Z,13.85
2023-03-25T15:31:29.325Z,13.78
2023-03-25T15:33:59.620Z,13.72
2023-03-25T15:36:31.250Z,13.67
2023-03-25T15:39:08.510Z,13.66
2023-03-25T15:41:41.820Z,13.70
2023-03-25T15:44:27.761Z,13.79
2023-03-25T15:47:11.350Z,13.94
2023-03-25T15:49:49.444Z,14.16
2023-03-25T15:52:20.355Z,14.20
2023-03-25T15:55:02.276Z,14.26
2023-03-25T15:57:30.511Z,14.34
2023-03-25T16:00:20.800Z,14.29
2023-03-25T16:03:14.013Z,14.22
2023-03-25T16:05:49.751Z,14.18
2023-03-25T16:08:25.099Z,14.17
2023-03-25T16:10:53.302Z,14.20
2023-03-25T16:13:25.697Z,14.23
2023-03-25T16:15:54.742Z,14.28
2023-03-25T16:18:22.705Z,14.24
2023-03-25T16:21:01.694Z,14.16
2023-03-25T16:23:29.593Z,14.00
2023-03-25T16:25:56.937Z,13.88
2023-03-25T16:28:33.896Z,13.82
2023-03-25T16:31:03.080Z,13.79
2023-03-25T16:33:32.148Z,13.70
2023-03-25T16:36:01.055Z,13.67
2023-03-25T16:38:29.159Z,13.49
2023-03-25T16:41:01.653Z,12.88
2023-03-25T16:43:29.616Z,12.19
2023-03-25T16:45:58.870Z,11.77
2023-03-25T16:48:31.816Z,11.53
2023-03-25T16:51:29.126Z,11.42
2023-03-25T16:54:01.768Z,11.25
2023-03-25T16:56:30.061Z,11.14
2023-03-25T16:59:05.621Z,10.93
2023-03-25T17:01:38.872Z,10.78
2023-03-25T17:04:11.710Z,10.72
2023-03-25T17:06:41.188Z,10.65
2023-03-25T17:09:12.186Z,10.67
2023-03-25T17:11:42.322Z,10.65
2023-03-25T17:14:15.670Z,10.61
2023-03-25T17:16:43.458Z,10.66
2023-03-25T17:19:14.114Z,10.51
2023-03-25T17:22:17.594Z,10.40
2023-03-25T17:24:54.013Z,10.17
2023-03-25T17:27:26.758Z,9.73
2023-03-25T17:30:01.103Z,9.44
2023-03-25T17:32:30.990Z,9.20
2023-03-25T17:35:04.638Z,9.09
2023-03-25T17:37:33.759Z,9.13
2023-03-25T17:40:06.760Z,9.27
2023-03-25T17:42:36.195Z,9.43
2023-03-25T17:45:03.353Z,9.57
2023-03-25T17:47:32.681Z,9.62
2023-03-25T17:50:04.179Z,9.60
2023-03-25T17:52:32.122Z,9.55
2023-03-25T17:55:00.154Z,9.56
2023-03-25T17:57:27.645Z,9.52
2023-03-25T17:59:55.793Z,9.56
2023-03-25T18:02:24.400Z,9.49
2023-03-25T18:04:52.167Z,9.46
2023-03-25T18:07:22.335Z,9.39
2023-03-25T18:09:49.891Z,9.31
2023-03-25T18:12:17.763Z,9.24
2023-03-25T18:14:45.186Z,9.23
2023-03-25T18:17:13.059Z,9.10
2023-03-25T18:19:42.893Z,9.02
2023-03-25T18:22:19.967Z,8.97
2023-03-25T18:24:48.017Z,8.92
2023-03-25T18:27:16.230Z,8.82
2023-03-25T18:29:44.092Z,8.81
2023-03-25T18:32:14.540Z,8.86
2023-03-25T18:34:42.183Z,8.82
2023-03-25T18:37:12.313Z,8.77
2023-03-25T18:39:39.851Z,8.71
2023-03-25T18:42:10.175Z,8.68
2023-03-25T18:44:39.085Z,8.75
2023-03-25T18:47:07.112Z,8.84
2023-03-25T18:49:34.910Z,8.88
2023-03-25T18:52:05.562Z,8.88
2023-03-25T18:54:33.426Z,8.95
2023-03-25T18:57:01.510Z,8.90
2023-03-25T18:59:29.972Z,8.97
2023-03-25T19:01:59.446Z,8.92
2023-03-25T19:04:30.214Z,8.98
2023-03-25T19:06:58.473Z,9.01
2023-03-25T19:09:26.217Z,9.07
2023-03-25T19:11:54.528Z,9.08
2023-03-25T19:14:22.112Z,9.04
2023-03-25T19:17:03.214Z,9.02
2023-03-25T19:19:31.837Z,9.09
2023-03-25T19:21:59.780Z,9.06
2023-03-25T19:24:27.589Z,8.97
2023-03-25T19:26:55.338Z,8.94
2023-03-25T19:29:24.487Z,9.06
2023-03-25T19:31:52.715Z,9.15
2023-03-25T19:34:22.604Z,9.09
2023-03-25T19:36:50.968Z,9.09
2023-03-25T19:39:19.307Z,9.05
2023-03-25T19:41:50.257Z,9.03
2023-03-25T19:44:20.368Z,9.00
2023-03-25T19:46:48.475Z,9.03
2023-03-25T19:49:25.881Z,9.09
2023-03-25T19:52:01.282Z,9.10
2023-03-25T19:54:33.268Z,9.13
2023-03-25T19:57:01.632Z,9.15
2023-03-25T19:59:32.838Z,9.09
2023-03-25T20:02:01.663Z,9.11
2023-03-25T20:04:30.991Z,9.16
2023-03-25T20:06:58.604Z,9.21
2023-03-25T20:09:30.633Z,9.20
2023-03-25T20:12:01.271Z,9.20
2023-03-25T20:14:29.177Z,9.16
2023-03-25T20:16:57.284Z,9.13
2023-03-25T20:19:27.521Z,9.21
2023-03-25T20:21:58.829Z,9.21
2023-03-25T20:24:27.361Z,9.25
2023-03-25T20:26:55.729Z,9.22
2023-03-25T20:29:25.070Z,9.21
2023-03-25T20:31:54.363Z,9.14
2023-03-25T20:34:22.291Z,9.07
2023-03-25T20:36:51.944Z,9.03
2023-03-25T20:39:19.918Z,8.94
2023-03-25T20:41:48.200Z,8.85
2023-03-25T20:44:17.964Z,8.80
2023-03-25T20:46:47.139Z,8.72
2023-03-25T20:49:15.622Z,8.69
2023-03-25T20:51:43.863Z,8.65
2023-03-25T20:54:12.526Z,8.60
2023-03-25T20:56:40.275Z,8.58
2023-03-25T20:59:09.704Z,8.57
2023-03-25T21:01:38.680Z,8.53
2023-03-25T21:04:10.184Z,8.46
2023-03-25T21:06:43.833Z,8.45
2023-03-25T21:09:14.225Z,8.49
2023-03-25T21:11:42.082Z,8.53
2023-03-25T21:14:10.665Z,8.47
2023-03-25T21:16:39.464Z,8.46
2023-03-25T21:19:08.347Z,8.44
2023-03-25T21:21:37.102Z,8.39
2023-03-25T21:24:04.453Z,8.37
2023-03-25T21:26:32.415Z,8.33
2023-03-25T21:29:00.265Z,8.33
2023-03-25T21:31:28.447Z,8.37
2023-03-25T21:33:56.510Z,8.35
2023-03-25T21:36:28.081Z,8.33
2023-03-25T21:38:56.392Z,8.36
2023-03-25T21:41:23.948Z,8.35
2023-03-25T21:43:52.539Z,8.34
2023-03-25T21:46:24.308Z,8.32
2023-03-25T21:48:51.969Z,8.34
2023-03-25T21:51:20.428Z,8.30
2023-03-25T21:53:47.599Z,8.37
2023-03-25T21:56:17.420Z,8.37
2023-03-25T21:58:45.214Z,8.40
2023-03-25T22:01:14.108Z,8.40
2023-03-25T22:03:45.494Z,8.43
2023-03-25T22:06:14.390Z,8.43
2023-03-25T22:08:41.776Z,8.41
2023-03-25T22:11:14.168Z,8.45
2023-03-25T22:13:41.685Z,8.43
2023-03-25T22:16:10.133Z,8.46
2023-03-25T22:18:37.780Z,8.49
2023-03-25T22:21:08.980Z,8.49
2023-03-25T22:23:36.249Z,8.49
2023-03-25T22:26:04.116Z,8.44
2023-03-25T22:28:31.173Z,8.49
2023-03-25T22:30:58.502Z,8.48
2023-03-25T22:33:26.759Z,8.45
2023-03-25T22:36:02.044Z,8.35
2023-03-25T22:38:31.261Z,8.28
2023-03-25T22:41:02.448Z,8.29
2023-03-25T22:43:32.709Z,8.33
2023-03-25T22:46:02.661Z,8.35
2023-03-25T22:48:30.524Z,8.31
2023-03-25T22:50:58.142Z,8.41
2023-03-25T22:53:26.265Z,8.44
2023-03-25T22:55:55.261Z,8.46
2023-03-25T22:58:23.346Z,8.45
2023-03-25T23:00:51.211Z,8.47
2023-03-25T23:03:18.619Z,8.50
2023-03-25T23:05:57.659Z,8.52
2023-03-25T23:08:30.089Z,8.50
2023-03-25T23:11:01.687Z,8.58
2023-03-25T23:13:30.234Z,8.66
2023-03-25T23:15:58.940Z,8.69
2023-03-25T23:18:28.123Z,8.70
2023-03-25T23:20:55.993Z,8.65
2023-03-25T23:23:23.994Z,8.72
2023-03-25T23:26:04.787Z,8.67
2023-03-25T23:28:34.464Z,8.65
2023-03-25T23:31:03.387Z,8.66
2023-03-25T23:33:30.600Z,8.78
2023-03-25T23:36:05.389Z,8.86
2023-03-25T23:38:32.496Z,8.89
2023-03-25T23:41:03.891Z,8.91
2023-03-25T23:43:30.943Z,8.94
2023-03-25T23:45:58.224Z,8.95
2023-03-25T23:48:26.166Z,8.94
2023-03-25T23:50:54.065Z,9.01
2023-03-25T23:53:21.815Z,9.05
2023-03-25T23:55:50.378Z,9.02
2023-03-25T23:58:17.936Z,9.03
